Time;durP1;ratioP1;P1;durP2;ratioP2;P2;SDS_P1;SDS_P2;PMS_P1;PMS_P2;Temp;Humidity;BMP_temperature;BMP_pressure;BME280_temperature;BME280_humidity;BME280_pressure;Samples;Min_cycle;Max_cycle;Signal;HPM_P1;HPM_P2
2024/01/22 00:00:55;;;;;;;4.72;2.47;;;;;;;3.71;51.12;99294.97;5000536;28;103268;-74
2024/01/22 00:03:23;;;;;;;3.80;2.33;;;;;;;3.70;51.02;99274.94;4991523;28;104151;-74
2024/01/22 00:05:51;;;;;;;4.25;2.55;;;;;;;3.72;50.81;99275.69;5002185;28;102767;-73
2024/01/22 00:08:20;;;;;;;3.92;2.45;;;;;;;3.70;50.67;99274.94;4998920;28;103162;-73
2024/01/22 00:10:48;;;;;;;3.90;2.38;;;;;;;3.73;50.28;99272.09;5003029;28;103367;-75
2024/01/22 00:13:17;;;;;;;5.32;2.47;;;;;;;3.84;48.87;99266.09;5004805;28;103297;-74
2024/01/22 00:15:45;;;;;;;5.45;2.80;;;;;;;3.84;48.78;99254.78;4999829;28;103042;-74
2024/01/22 00:18:13;;;;;;;4.68;2.40;;;;;;;3.86;48.40;99258.13;5004176;28;103690;-74
2024/01/22 00:20:41;;;;;;;4.63;2.40;;;;;;;3.90;48.32;99259.56;5000884;28;103209;-73
2024/01/22 00:23:10;;;;;;;4.75;2.50;;;;;;;3.84;47.27;99241.66;5003171;27;103083;-74
2024/01/22 00:25:38;;;;;;;3.50;2.30;;;;;;;3.92;47.54;99247.22;4998859;28;102781;-74
2024/01/22 00:28:09;;;;;;;5.28;2.50;;;;;;;3.92;47.43;99227.06;4994538;28;102623;-73
2024/01/22 00:30:38;;;;;;;4.80;2.83;;;;;;;3.90;47.97;99220.25;4981365;28;103050;-73
2024/01/22 00:33:06;;;;;;;3.53;2.10;;;;;;;3.92;47.65;99221.00;4993094;28;103287;-73
2024/01/22 00:35:34;;;;;;;3.53;2.20;;;;;;;3.89;47.99;99219.44;4984305;28;103485;-74
2024/01/22 00:38:02;;;;;;;4.07;2.30;;;;;;;3.91;47.92;99211.47;5001486;28;102686;-74
2024/01/22 00:40:30;;;;;;;3.80;2.33;;;;;;;3.94;48.00;99205.97;4984399;28;104490;-73
2024/01/22 00:42:58;;;;;;;4.53;2.55;;;;;;;3.95;47.98;99207.66;5004509;28;103322;-73
2024/01/22 00:45:26;;;;;;;4.45;2.35;;;;;;;3.93;48.29;99201.69;4980835;28;102754;-73
2024/01/22 00:47:56;;;;;;;4.20;2.58;;;;;;;3.96;47.44;99198.84;4984109;28;103811;-73
2024/01/22 00:50:24;;;;;;;5.82;2.85;;;;;;;4.02;48.90;99195.75;5002513;28;104770;-73
2024/01/22 00:52:52;;;;;;;3.80;2.10;;;;;;;4.09;47.96;99193.53;5002506;28;103200;-74
2024/01/22 00:55:20;;;;;;;3.95;2.53;;;;;;;4.13;48.39;99187.94;4990267;28;103191;-74
2024/01/22 00:57:48;;;;;;;5.93;2.53;;;;;;;4.18;48.12;99181.50;4998666;28;103542;-74
2024/01/22 01:00:16;;;;;;;6.63;2.20;;;;;;;4.16;47.67;99171.16;4982991;28;103421;-74
2024/01/22 01:02:45;;;;;;;4.75;2.50;;;;;;;4.14;47.64;99163.41;4979135;28;103781;-74
2024/01/22 01:05:14;;;;;;;3.67;2.22;;;;;;;4.15;47.44;99154.59;4985451;28;102716;-74
2024/01/22 01:07:43;;;;;;;4.45;2.65;;;;;;;4.12;47.28;99160.03;5004153;28;103222;-73
2024/01/22 01:10:11;;;;;;;4.65;2.40;;;;;;;4.05;47.82;99173.72;5001019;28;103051;-75
2024/01/22 01:12:39;;;;;;;5.03;2.80;;;;;;;4.08;47.34;99173.50;4987646;28;103413;-74
2024/01/22 01:15:08;;;;;;;4.32;2.45;;;;;;;4.08;47.81;99189.25;5000716;28;102676;-74
2024/01/22 01:17:37;;;;;;;4.38;2.60;;;;;;;4.00;48.11;99187.19;4987301;28;104502;-74
2024/01/22 01:20:08;;;;;;;5.75;2.53;;;;;;;4.02;48.18;99189.69;4999167;28;104109;-74
2024/01/22 01:22:37;;;;;;;6.10;3.03;;;;;;;3.93;47.96;99191.19;4983130;28;103273;-74
2024/01/22 01:25:05;;;;;;;3.95;2.50;;;;;;;3.88;47.17;99177.59;4999368;28;102638;-74
2024/01/22 01:27:33;;;;;;;4.10;2.40;;;;;;;3.81;48.19;99178.06;4997686;28;104080;-74
2024/01/22 01:30:01;;;;;;;4.57;2.72;;;;;;;3.75;48.26;99175.91;4993580;28;103390;-74
2024/01/22 01:32:29;;;;;;;4.47;2.72;;;;;;;3.76;48.11;99174.09;5007075;28;103279;-74
2024/01/22 01:34:57;;;;;;;5.15;2.88;;;;;;;3.74;48.17;99176.84;5009405;27;102743;-74
2024/01/22 01:37:26;;;;;;;4.85;2.90;;;;;;;3.70;48.95;99177.19;4982095;28;103042;-75
2024/01/22 01:39:56;;;;;;;5.38;2.88;;;;;;;3.65;49.32;99170.50;5001329;28;103433;-74
2024/01/22 01:42:26;;;;;;;4.63;2.88;;;;;;;3.65;49.09;99170.50;4979687;28;104080;-74
2024/01/22 01:44:54;;;;;;;8.50;3.55;;;;;;;3.57;49.29;99170.22;4985793;28;102931;-75
2024/01/22 01:47:22;;;;;;;5.43;3.38;;;;;;;3.52;49.83;99166.28;4986710;28;103910;-74
2024/01/22 01:49:51;;;;;;;6.15;4.43;;;;;;;3.29;50.47;99181.88;4975296;28;104147;-74
2024/01/22 01:52:19;;;;;;;6.18;4.07;;;;;;;3.17;50.75;99183.56;4998271;28;103264;-74
2024/01/22 01:54:50;;;;;;;5.32;2.97;;;;;;;3.12;51.47;99189.13;4999730;28;102638;-74
2024/01/22 01:57:22;;;;;;;6.47;4.22;;;;;;;3.06;52.09;99184.31;5001015;28;103867;-74
2024/01/22 01:59:51;;;;;;;6.13;3.85;;;;;;;2.80;52.35;99181.75;5004744;28;103816;-74
2024/01/22 02:02:20;;;;;;;7.22;4.55;;;;;;;2.73;51.96;99184.91;5004807;28;103081;-74
2024/01/22 02:04:48;;;;;;;11.75;5.10;;;;;;;2.57;52.65;99185.09;5002430;28;103317;-74
2024/01/22 02:07:16;;;;;;;6.93;4.38;;;;;;;2.57;52.77;99172.03;5008011;28;102725;-74
2024/01/22 02:09:52;;;;;;;5.63;4.20;;;;;;;2.62;52.95;99165.56;4983861;28;104187;-74
2024/01/22 02:12:21;;;;;;;8.68;6.13;;;;;;;2.62;53.13;99172.53;4980485;28;103133;-74
2024/01/22 02:14:49;;;;;;;9.35;6.00;;;;;;;2.53;53.03;99162.72;5005379;28;102564;-74
2024/01/22 02:17:17;;;;;;;8.32;5.13;;;;;;;2.51;53.65;99157.59;5005238;28;102635;-74
2024/01/22 02:19:46;;;;;;;6.25;4.32;;;;;;;2.46;53.95;99163.16;5006569;28;103363;-76
2024/01/22 02:22:14;;;;;;;8.32;5.97;;;;;;;2.40;54.17;99173.22;5002261;28;103204;-75
2024/01/22 02:24:43;;;;;;;9.52;5.93;;;;;;;2.36;55.08;99167.34;4998746;28;102673;-74
2024/01/22 02:27:12;;;;;;;9.23;5.75;;;;;;;2.37;55.03;99166.41;4999357;28;103842;-75
2024/01/22 02:29:40;;;;;;;9.82;6.32;;;;;;;2.35;55.46;99173.50;5004781;28;104460;-75
2024/01/22 02:32:08;;;;;;;9.20;6.32;;;;;;;2.33;55.07;99170.16;4989254;28;104481;-74
2024/01/22 02:34:37;;;;;;;7.80;5.65;;;;;;;2.32;55.15;99164.09;4987556;28;102750;-73
2024/01/22 02:37:08;;;;;;;7.97;4.63;;;;;;;2.34;55.68;99169.22;4969994;28;104184;-74
2024/01/22 02:39:37;;;;;;;7.90;4.63;;;;;;;2.31;55.47;99153.75;5001758;28;103228;-74
2024/01/22 02:42:06;;;;;;;7.28;4.95;;;;;;;2.26;55.33;99156.66;4980009;28;103725;-74
2024/01/22 02:44:35;;;;;;;10.35;6.20;;;;;;;2.27;55.68;99154.91;5001687;28;103895;-74
2024/01/22 02:47:04;;;;;;;9.57;5.60;;;;;;;2.25;55.58;99152.38;5001954;28;102730;-74
2024/01/22 02:49:34;;;;;;;9.25;6.10;;;;;;;2.20;55.43;99135.34;4999293;28;104348;-76
2024/01/22 02:52:05;;;;;;;8.60;5.43;;;;;;;2.19;56.04;99133.66;4984725;28;103223;-74
2024/01/22 02:54:32;;;;;;;10.02;6.28;;;;;;;2.12;55.84;99141.94;4994757;28;102731;-75
2024/01/22 02:57:02;;;;;;;8.73;6.18;;;;;;;2.10;56.69;99130.72;4982385;28;102752;-75
2024/01/22 02:59:36;;;;;;;10.82;5.47;;;;;;;2.09;56.56;99130.84;4996880;28;103646;-75
2024/01/22 03:02:04;;;;;;;11.15;6.60;;;;;;;2.05;56.88;99122.38;4986644;28;103306;-75
2024/01/22 03:04:32;;;;;;;10.68;6.30;;;;;;;1.95;56.70;99122.16;4977190;28;102703;-75
2024/01/22 03:07:00;;;;;;;8.77;5.55;;;;;;;1.92;56.86;99122.34;4998539;28;102724;-76
2024/01/22 03:09:28;;;;;;;11.07;7.70;;;;;;;1.90;57.10;99115.56;4998506;28;103256;-75
2024/01/22 03:11:56;;;;;;;12.80;7.97;;;;;;;1.88;57.86;99117.44;4999036;28;103537;-75
2024/01/22 03:14:24;;;;;;;13.60;8.05;;;;;;;1.64;58.27;99128.59;4980340;28;102711;-75
2024/01/22 03:16:54;;;;;;;10.50;6.97;;;;;;;1.47;58.42;99125.28;4998326;28;104022;-75
2024/01/22 03:19:24;;;;;;;14.18;8.75;;;;;;;1.36;58.76;99108.66;4980822;28;103602;-75
2024/01/22 03:21:51;;;;;;;12.48;7.07;;;;;;;1.29;59.38;99108.22;4974714;28;104485;-75
2024/01/22 03:24:22;;;;;;;14.73;8.10;;;;;;;1.45;58.94;99111.50;4999300;28;103609;-75
2024/01/22 03:26:50;;;;;;;13.35;7.43;;;;;;;1.49;58.69;99105.16;4969016;28;102900;-76
2024/01/22 03:29:19;;;;;;;11.18;6.72;;;;;;;1.57;58.50;99111.63;5002318;28;103369;-76
2024/01/22 03:31:49;;;;;;;9.75;6.90;;;;;;;1.62;58.88;99086.06;4994598;28;103255;-76
2024/01/22 03:34:18;;;;;;;10.95;6.50;;;;;;;1.63;59.17;99085.13;5001325;28;103830;-76
2024/01/22 03:36:46;;;;;;;9.00;6.57;;;;;;;1.64;58.81;99086.81;5004605;28;103824;-76
2024/01/22 03:39:14;;;;;;;8.73;5.57;;;;;;;1.67;59.02;99081.38;4983687;28;103410;-75
2024/01/22 03:41:42;;;;;;;7.22;4.57;;;;;;;1.76;58.90;99079.94;4996379;28;103446;-75
2024/01/22 03:44:11;;;;;;;7.88;5.05;;;;;;;1.77;59.20;99077.22;4997560;28;103069;-75
2024/01/22 03:46:39;;;;;;;6.50;4.13;;;;;;;1.80;58.92;99082.22;4983672;28;102677;-75
2024/01/22 03:49:07;;;;;;;11.32;5.38;;;;;;;1.83;59.04;99075.94;4991571;28;104400;-75
2024/01/22 03:51:37;;;;;;;9.50;5.18;;;;;;;1.89;58.76;99069.50;4988939;28;103268;-75
2024/01/22 03:54:05;;;;;;;7.75;4.13;;;;;;;1.87;58.96;99076.59;4987539;28;106825;-76
2024/01/22 03:56:33;;;;;;;9.38;5.28;;;;;;;1.88;59.56;99070.44;4997323;27;103071;-76
2024/01/22 03:59:01;;;;;;;10.25;6.03;;;;;;;1.79;59.39;99080.53;4997319;28;103203;-75
2024/01/22 04:01:29;;;;;;;8.75;5.90;;;;;;;1.74;59.24;99077.44;5009935;28;103330;-76
2024/01/22 04:03:57;;;;;;;7.72;5.22;;;;;;;1.83;59.27;99075.94;5005068;28;102594;-73
2024/01/22 04:06:25;;;;;;;7.53;4.45;;;;;;;1.86;59.23;99077.53;4987856;28;103330;-73
2024/01/22 04:08:54;;;;;;;7.20;5.32;;;;;;;1.92;59.77;99082.34;4986287;28;104184;-73
2024/01/22 04:11:22;;;;;;;7.13;5.03;;;;;;;1.94;59.12;99065.63;4984274;28;103200;-75
2024/01/22 04:13:50;;;;;;;5.80;3.92;;;;;;;2.00;59.09;99066.97;4975992;28;102889;-75
2024/01/22 04:16:18;;;;;;;6.72;4.28;;;;;;;2.01;59.56;99068.66;5007330;28;102558;-75
2024/01/22 04:18:46;;;;;;;7.63;4.18;;;;;;;2.06;59.45;99061.34;4982403;28;103282;-75
2024/01/22 04:21:14;;;;;;;6.68;4.45;;;;;;;2.06;59.04;99050.88;5003922;28;103199;-74
2024/01/22 04:23:42;;;;;;;7.20;3.80;;;;;;;2.06;59.12;99040.44;5000951;28;102652;-73
2024/01/22 04:26:12;;;;;;;8.52;5.40;;;;;;;2.01;59.50;99041.69;4987882;28;104001;-76
2024/01/22 04:28:40;;;;;;;6.45;4.45;;;;;;;2.01;59.42;99039.91;4983010;28;104473;-73
2024/01/22 04:31:08;;;;;;;8.63;5.25;;;;;;;1.98;59.26;99032.28;5005096;28;103338;-73
2024/01/22 04:33:39;;;;;;;9.98;5.07;;;;;;;1.95;59.70;99029.88;4982197;28;103129;-73
2024/01/22 04:36:08;;;;;;;10.20;5.68;;;;;;;1.95;60.10;99029.88;4982111;28;103060;-73
2024/01/22 04:38:36;;;;;;;6.38;4.25;;;;;;;1.97;59.64;99020.16;4978382;28;103217;-73
2024/01/22 04:41:04;;;;;;;7.10;4.63;;;;;;;1.92;59.82;99035.31;5002319;28;103246;-73
2024/01/22 04:43:33;;;;;;;9.30;5.75;;;;;;;1.93;60.61;99029.97;4988133;28;102821;-73
2024/01/22 04:46:01;;;;;;;7.32;4.78;;;;;;;1.92;60.11;99028.31;4999577;28;103661;-73
2024/01/22 04:48:29;;;;;;;8.60;5.32;;;;;;;1.96;60.10;99024.53;4985526;28;104938;-73
2024/01/22 04:50:57;;;;;;;9.73;6.18;;;;;;;1.94;60.33;99013.38;5011436;28;103350;-73
2024/01/22 04:53:25;;;;;;;8.60;5.90;;;;;;;1.91;61.05;99025.81;5013321;28;102733;-73
2024/01/22 04:55:53;;;;;;;11.05;6.18;;;;;;;1.90;60.94;99014.53;5009509;28;104060;-72
2024/01/22 04:58:21;;;;;;;10.07;6.10;;;;;;;1.94;60.85;99020.34;5010322;28;103045;-73
2024/01/22 05:00:50;;;;;;;8.80;6.03;;;;;;;1.92;61.15;99006.59;4988099;28;102684;-73
2024/01/22 05:03:18;;;;;;;9.63;5.68;;;;;;;1.90;61.26;99005.84;4983160;28;102637;-73
2024/01/22 05:05:46;;;;;;;10.98;5.95;;;;;;;1.87;62.01;99009.50;4991641;28;103963;-74
2024/01/22 05:08:15;;;;;;;7.28;5.07;;;;;;;1.87;61.71;99009.50;4974739;28;103834;-72
2024/01/22 05:10:43;;;;;;;7.22;5.20;;;;;;;1.92;61.74;99011.81;5006785;28;103064;-73
2024/01/22 05:13:13;;;;;;;7.78;4.78;;;;;;;1.98;61.69;99006.16;4994272;28;102836;-72
2024/01/22 05:15:42;;;;;;;8.30;5.03;;;;;;;1.97;61.91;99001.88;5007183;28;102623;-73
2024/01/22 05:18:11;;;;;;;7.20;5.00;;;;;;;2.02;61.49;98999.78;5002488;28;103286;-73
2024/01/22 05:20:39;;;;;;;8.18;5.20;;;;;;;2.02;61.71;99002.41;4987902;28;104358;-72
2024/01/22 05:23:08;;;;;;;8.80;6.00;;;;;;;2.02;62.25;98991.94;4995138;28;103776;-73
2024/01/22 05:25:36;;;;;;;6.75;4.70;;;;;;;2.02;61.99;98991.94;5006229;28;102864;-72
2024/01/22 05:28:04;;;;;;;7.30;4.93;;;;;;;2.10;62.09;98994.03;4991903;28;103904;-73
2024/01/22 05:30:32;;;;;;;6.13;4.15;;;;;;;2.14;61.78;98996.31;4984341;28;103417;-72
2024/01/22 05:33:00;;;;;;;8.95;4.95;;;;;;;2.17;62.22;98994.44;4989203;28;102884;-72
2024/01/22 05:35:29;;;;;;;6.88;3.58;;;;;;;2.20;61.83;98983.75;4997766;28;103749;-72
2024/01/22 05:37:57;;;;;;;6.88;4.05;;;;;;;2.23;62.13;98983.56;4979119;28;104774;-72
2024/01/22 05:40:25;;;;;;;8.32;5.07;;;;;;;2.24;62.58;98979.97;4983018;28;103388;-73
2024/01/22 05:42:53;;;;;;;9.07;5.13;;;;;;;2.26;62.57;98968.47;4998586;28;102757;-72
2024/01/22 05:45:23;;;;;;;6.47;4.25;;;;;;;2.32;62.16;98957.59;5001712;28;102913;-74
2024/01/22 05:47:52;;;;;;;6.85;3.67;;;;;;;2.39;62.39;98952.75;5001032;28;103268;-73
2024/01/22 05:50:22;;;;;;;6.13;3.90;;;;;;;2.39;62.09;98936.25;4978795;28;103251;-73
2024/01/22 05:52:54;;;;;;;8.15;4.88;;;;;;;2.41;62.14;98929.97;4997889;28;102674;-73
2024/01/22 05:55:22;;;;;;;10.00;5.80;;;;;;;2.38;62.67;98929.34;4997290;28;102762;-74
2024/01/22 05:57:50;;;;;;;8.35;4.53;;;;;;;2.42;62.13;98930.78;4968527;28;103460;-72
2024/01/22 06:00:18;;;;;;;8.93;4.97;;;;;;;2.49;61.61;98927.63;5007722;28;103246;-73
2024/01/22 06:02:47;;;;;;;10.00;4.53;;;;;;;2.51;62.22;98929.31;5002360;28;103815;-75
2024/01/22 06:05:15;;;;;;;10.60;5.45;;;;;;;2.52;62.18;98925.75;4989748;28;102769;-73
2024/01/22 06:07:43;;;;;;;6.85;4.60;;;;;;;2.53;62.06;98919.56;4995825;28;103034;-76
2024/01/22 06:10:13;;;;;;;7.00;4.03;;;;;;;2.57;62.01;98919.22;4977245;28;103744;-74
2024/01/22 06:12:41;;;;;;;7.47;4.20;;;;;;;2.63;62.26;98915.31;5002637;28;102852;-74
2024/01/22 06:15:09;;;;;;;6.13;3.97;;;;;;;2.67;61.59;98908.09;4991167;28;102837;-72
2024/01/22 06:17:37;;;;;;;5.20;3.40;;;;;;;2.69;61.83;98901.81;4995993;28;104300;-73
2024/01/22 06:20:09;;;;;;;7.82;4.03;;;;;;;2.74;61.87;98897.06;4989899;28;103184;-72
2024/01/22 06:22:39;;;;;;;7.03;4.03;;;;;;;2.84;62.28;98893.78;4970839;28;102650;-73
2024/01/22 06:25:07;;;;;;;6.63;3.75;;;;;;;3.03;61.38;98899.31;4986099;28;103800;-73
2024/01/22 06:27:37;;;;;;;8.52;3.65;;;;;;;3.20;61.00;98891.97;4997773;28;103309;-74
2024/01/22 06:30:06;;;;;;;6.03;3.40;;;;;;;3.38;60.88;98893.19;4999670;28;103319;-75
2024/01/22 06:32:34;;;;;;;6.30;2.97;;;;;;;3.48;60.31;98883.66;5005132;28;102886;-74
2024/01/22 06:35:04;;;;;;;6.07;2.85;;;;;;;3.62;59.90;98885.22;4978919;28;104077;-75
2024/01/22 06:37:33;;;;;;;5.47;3.00;;;;;;;3.70;60.02;98886.41;4977655;28;103635;-75
2024/01/22 06:40:01;;;;;;;4.90;3.13;;;;;;;3.77;59.37;98891.06;4983118;28;104213;-74
2024/01/22 06:42:29;;;;;;;4.95;2.95;;;;;;;3.84;59.18;98887.94;4997928;28;102650;-75
2024/01/22 06:45:07;;;;;;;8.52;3.33;;;;;;;3.92;58.81;98890.81;5003797;28;103136;-74
2024/01/22 06:47:36;;;;;;;11.75;3.60;;;;;;;3.95;59.01;98891.38;4998879;28;105119;-75
2024/01/22 06:50:05;;;;;;;11.45;3.30;;;;;;;4.03;58.17;98887.31;4963157;28;103219;-75
2024/01/22 06:52:33;;;;;;;7.65;2.97;;;;;;;4.11;58.64;98888.38;4993028;28;102752;-74
2024/01/22 06:55:02;;;;;;;5.47;2.88;;;;;;;4.20;58.08;98883.34;4995422;28;102874;-75
2024/01/22 06:57:30;;;;;;;6.30;3.17;;;;;;;4.24;58.05;98882.16;5001420;28;103385;-74
2024/01/22 06:59:59;;;;;;;4.65;3.35;;;;;;;4.26;57.88;98881.06;4999232;28;103263;-72
2024/01/22 07:02:28;;;;;;;6.78;3.40;;;;;;;4.33;57.71;98868.31;4998593;28;102717;-74
2024/01/22 07:04:56;;;;;;;4.95;2.70;;;;;;;4.33;57.54;98878.78;4996451;28;102822;-75
2024/01/22 07:07:25;;;;;;;5.32;3.20;;;;;;;4.38;57.46;98867.94;5004698;28;103416;-75
2024/01/22 07:09:54;;;;;;;4.55;2.50;;;;;;;4.48;57.38;98877.56;5000790;28;103288;-74
2024/01/22 07:12:22;;;;;;;5.20;2.60;;;;;;;4.50;57.19;98876.59;4980404;28;102687;-74
2024/01/22 07:14:50;;;;;;;4.97;2.47;;;;;;;4.54;57.57;98893.75;4968291;28;103917;-75
2024/01/22 07:17:19;;;;;;;4.60;2.55;;;;;;;4.55;57.26;98893.63;4978916;28;103189;-76
2024/01/22 07:19:49;;;;;;;4.65;2.92;;;;;;;4.52;56.95;98899.13;5002341;28;103255;-76
2024/01/22 07:22:18;;;;;;;4.65;3.10;;;;;;;4.59;57.04;98899.47;5007225;28;102630;-77
2024/01/22 07:24:46;;;;;;;4.70;2.35;;;;;;;4.65;56.80;98898.94;4989957;28;104272;-76
2024/01/22 07:27:14;;;;;;;3.80;2.53;;;;;;;4.74;56.39;98886.88;5012586;28;103278;-75
2024/01/22 07:29:42;;;;;;;6.45;2.80;;;;;;;4.79;56.21;98875.06;5007157;28;103196;-75
2024/01/22 07:32:10;;;;;;;5.15;2.50;;;;;;;4.82;56.39;98874.78;5009316;27;102859;-76
2024/01/22 07:34:38;;;;;;;4.22;2.42;;;;;;;4.84;55.79;98873.84;5005966;28;102552;-75
2024/01/22 07:37:07;;;;;;;6.10;3.03;;;;;;;4.87;55.80;98865.69;4998616;28;102820;-79
2024/01/22 07:39:35;;;;;;;7.32;2.88;;;;;;;4.91;55.60;98857.44;4972388;28;103218;-75
2024/01/22 07:42:04;;;;;;;4.47;2.53;;;;;;;4.95;55.75;98852.75;4996483;28;102658;-77
2024/01/22 07:44:32;;;;;;;3.90;2.38;;;;;;;5.01;55.43;98833.88;4982693;28;103315;-78
2024/01/22 07:46:59;;;;;;;6.60;2.50;;;;;;;5.04;55.20;98841.47;4985875;28;103961;-77
2024/01/22 07:49:27;;;;;;;6.65;2.90;;;;;;;5.07;54.85;98840.38;4979953;28;104647;-77
2024/01/22 07:51:55;;;;;;;4.68;2.67;;;;;;;5.09;54.56;98834.03;4974111;28;102741;-79
2024/01/22 07:54:25;;;;;;;8.43;3.53;;;;;;;5.12;54.80;98822.44;4981783;28;102658;-79
2024/01/22 07:56:53;;;;;;;4.47;3.03;;;;;;;5.10;54.97;98819.97;5001749;28;103284;-77
2024/01/22 07:59:21;;;;;;;5.43;3.30;;;;;;;5.11;54.74;98815.56;5007602;28;104297;-78
2024/01/22 08:01:49;;;;;;;8.02;3.78;;;;;;;5.09;54.70;98809.59;4980402;28;102660;-78
2024/01/22 08:04:17;;;;;;;7.43;3.53;;;;;;;5.12;54.76;98804.94;4986705;28;104216;-77
2024/01/22 08:06:45;;;;;;;5.20;3.03;;;;;;;5.17;55.44;98809.78;4996181;28;103311;-79
2024/01/22 08:09:13;;;;;;;6.28;2.92;;;;;;;5.20;55.35;98792.91;4996691;28;103203;-77
2024/01/22 08:11:43;;;;;;;5.32;2.65;;;;;;;5.28;55.11;98787.88;5006903;28;103638;-77
2024/01/22 08:14:11;;;;;;;5.05;2.88;;;;;;;5.37;54.68;98794.94;4983653;28;103892;-78
2024/01/22 08:16:39;;;;;;;5.18;2.80;;;;;;;5.46;54.96;98788.91;4982036;28;103473;-78
2024/01/22 08:19:07;;;;;;;4.05;2.25;;;;;;;5.55;54.70;98781.16;4988930;28;104484;-77
2024/01/22 08:21:38;;;;;;;4.70;2.72;;;;;;;5.63;54.56;98778.69;4989483;28;102737;-76
2024/01/22 08:24:06;;;;;;;5.18;2.63;;;;;;;5.68;54.49;98781.75;5007691;28;102818;-76
2024/01/22 08:26:34;;;;;;;5.13;2.60;;;;;;;5.77;54.42;98795.88;5002392;28;104116;-77
2024/01/22 08:29:06;;;;;;;5.10;2.75;;;;;;;5.85;54.32;98795.22;4978671;28;103199;-77
2024/01/22 08:31:34;;;;;;;3.50;2.00;;;;;;;5.90;54.38;98785.13;4984950;28;102712;-78
2024/01/22 08:34:02;;;;;;;5.40;2.40;;;;;;;5.95;54.62;98793.44;4984465;28;104134;-78
2024/01/22 08:36:31;;;;;;;7.43;2.95;;;;;;;5.95;54.85;98788.19;4980551;28;104308;-78
2024/01/22 08:38:59;;;;;;;4.68;2.70;;;;;;;6.03;54.63;98784.91;5003398;28;103234;-78
2024/01/22 08:41:27;;;;;;;4.85;2.40;;;;;;;6.06;54.83;98785.44;4994032;28;102670;-75
2024/01/22 08:43:59;;;;;;;6.72;2.97;;;;;;;6.09;55.09;98782.56;5001073;27;102919;-78
2024/01/22 08:46:30;;;;;;;4.95;2.60;;;;;;;6.11;55.45;98775.34;5001795;27;102962;-77
2024/01/22 08:49:00;;;;;;;5.20;2.45;;;;;;;6.12;55.45;98784.06;4991868;28;103240;-75
2024/01/22 08:51:29;;;;;;;6.57;2.78;;;;;;;6.20;55.57;98786.03;5010270;28;102615;-76
2024/01/22 08:53:56;;;;;;;5.50;2.72;;;;;;;6.25;55.62;98775.88;4979784;28;103935;-75
2024/01/22 08:56:25;;;;;;;6.00;3.10;;;;;;;6.30;55.63;98771.03;5002820;28;103249;-76
2024/01/22 08:58:53;;;;;;;8.55;3.08;;;;;;;6.36;55.88;98762.59;4992193;28;104618;-78
2024/01/22 09:01:21;;;;;;;6.22;2.50;;;;;;;6.41;56.23;98775.34;5002272;28;102879;-77
2024/01/22 09:03:58;;;;;;;4.05;2.58;;;;;;;6.44;55.86;98762.72;5005717;28;102660;-76
2024/01/22 09:06:26;;;;;;;4.43;2.25;;;;;;;6.51;56.21;98768.28;4992956;28;104843;-74
2024/01/22 09:08:54;;;;;;;5.38;3.00;;;;;;;6.54;56.37;98772.44;5011006;28;103257;-75
2024/01/22 09:11:22;;;;;;;7.38;2.95;;;;;;;6.61;56.10;98776.16;5013308;28;102831;-74
2024/01/22 09:13:50;;;;;;;4.28;2.58;;;;;;;6.67;56.79;98772.97;4989264;28;103733;-74
2024/01/22 09:16:19;;;;;;;6.90;3.00;;;;;;;6.72;57.63;98762.00;4986403;28;104557;-76
2024/01/22 09:18:48;;;;;;;5.28;2.40;;;;;;;6.76;57.71;98755.47;4999835;28;103497;-75
2024/01/22 09:21:17;;;;;;;8.32;2.30;;;;;;;6.89;58.99;98760.44;4997795;28;102641;-75
2024/01/22 09:23:46;;;;;;;3.55;1.83;;;;;;;7.36;62.87;98752.47;5004597;28;102677;-75
2024/01/22 09:26:14;;;;;;;2.58;1.60;;;;;;;7.64;63.17;98765.69;5004659;28;104335;-75
2024/01/22 09:28:42;;;;;;;2.53;1.23;;;;;;;8.13;62.98;98760.06;4991767;28;103249;-76
2024/01/22 09:31:10;;;;;;;2.58;1.27;;;;;;;8.41;63.45;98742.34;5004821;28;102898;-73
2024/01/22 09:33:37;;;;;;;1.75;1.10;;;;;;;8.68;61.84;98745.84;4985170;28;102754;-73
2024/01/22 09:36:07;;;;;;;1.25;1.13;;;;;;;8.83;62.48;98734.72;5003333;28;103321;-74
2024/01/22 09:38:39;;;;;;;1.55;1.05;;;;;;;9.04;61.61;98732.53;5004628;28;103200;-73
2024/01/22 09:41:08;;;;;;;1.67;1.05;;;;;;;9.21;60.92;98729.94;4989117;28;102678;-74
2024/01/22 09:43:39;;;;;;;1.13;1.00;;;;;;;9.17;61.31;98725.97;4997085;28;103970;-71
2024/01/22 09:46:08;;;;;;;1.02;0.90;;;;;;;9.23;61.14;98733.28;4998539;28;103320;-74
2024/01/22 09:48:36;;;;;;;1.35;1.05;;;;;;;9.36;60.86;98732.84;5009707;28;103279;-74
2024/01/22 09:51:06;;;;;;;2.75;1.70;;;;;;;9.54;60.88;98724.81;4984308;28;102679;-74
2024/01/22 09:53:46;;;;;;;1.20;1.00;;;;;;;9.60;61.12;98721.50;5001802;28;102689;-75
2024/01/22 09:56:16;;;;;;;2.47;0.85;;;;;;;9.70;60.95;98719.56;5002024;28;103210;-74
2024/01/22 09:58:47;;;;;;;2.00;1.23;;;;;;;9.81;61.00;98712.28;4997861;28;103360;-74
2024/01/22 10:01:15;;;;;;;4.85;1.15;;;;;;;9.86;60.62;98710.00;5006692;28;102576;-75
2024/01/22 10:03:44;;;;;;;1.92;0.90;;;;;;;9.98;60.77;98713.97;4986243;28;102824;-74
2024/01/22 10:06:13;;;;;;;1.63;1.00;;;;;;;10.04;60.42;98718.63;5004848;28;103137;-75
2024/01/22 10:08:43;;;;;;;1.85;1.23;;;;;;;10.10;60.47;98717.13;4965745;28;103954;-74
2024/01/22 10:11:12;;;;;;;2.28;1.00;;;;;;;10.07;60.81;98712.16;4993257;28;102683;-74
2024/01/22 10:13:50;;;;;;;1.88;1.20;;;;;;;10.11;61.04;98706.38;4989017;28;104260;-75
2024/01/22 10:16:18;;;;;;;1.70;1.08;;;;;;;10.17;61.02;98712.03;5005543;28;103917;-74
2024/01/22 10:18:57;;;;;;;3.53;1.00;;;;;;;10.19;61.31;98702.91;5006254;28;103269;-74
2024/01/22 10:21:26;;;;;;;2.88;1.77;;;;;;;10.24;61.32;98697.13;4985884;28;103096;-74
2024/01/22 10:24:01;;;;;;;1.63;1.10;;;;;;;10.29;61.21;98689.50;4987717;28;104052;-74
2024/01/22 10:26:31;;;;;;;2.53;1.45;;;;;;;10.33;61.54;98674.13;5004263;28;103995;-75
2024/01/22 10:29:14;;;;;;;2.20;1.00;;;;;;;10.31;62.00;98686.69;4984010;28;104305;-74
2024/01/22 10:31:54;;;;;;;1.48;1.00;;;;;;;10.37;61.67;98688.72;4988061;27;102719;-74
2024/01/22 10:34:28;;;;;;;1.55;1.10;;;;;;;10.43;61.77;98670.31;4961762;28;102846;-74
2024/01/22 10:37:07;;;;;;;0.95;0.90;;;;;;;10.60;61.58;98665.00;4996983;28;103289;-74
2024/01/22 10:39:37;;;;;;;1.25;1.02;;;;;;;10.64;61.62;98665.47;4985188;28;104298;-74
2024/01/22 10:42:10;;;;;;;2.42;1.50;;;;;;;10.55;62.58;98662.03;4986561;28;102684;-74
2024/01/22 10:44:39;;;;;;;1.02;0.93;;;;;;;10.64;62.54;98645.13;4984242;28;103157;-74
2024/01/22 10:47:09;;;;;;;1.08;0.90;;;;;;;10.61;63.14;98646.28;4985310;28;104488;-74
2024/01/22 10:49:37;;;;;;;2.15;1.17;;;;;;;10.68;63.18;98641.16;5007405;28;103280;-74
2024/01/22 10:52:06;;;;;;;0.70;0.70;;;;;;;10.70;62.71;98647.13;5001006;28;102691;-74
2024/01/22 10:54:37;;;;;;;2.42;1.10;;;;;;;10.85;62.45;98638.44;4987419;28;102935;-74
2024/01/22 10:57:10;;;;;;;3.30;1.50;;;;;;;10.87;62.25;98644.38;4986030;28;103871;-74
2024/01/22 10:59:39;;;;;;;2.08;1.30;;;;;;;10.94;62.24;98648.03;4991798;28;103301;-74
2024/01/22 11:02:14;;;;;;;1.45;1.10;;;;;;;10.92;62.19;98631.44;4993314;28;102717;-74
2024/01/22 11:04:45;;;;;;;1.55;1.17;;;;;;;10.98;62.19;98636.06;4984236;28;104221;-74
2024/01/22 11:07:14;;;;;;;1.50;0.95;;;;;;;11.17;61.93;98631.34;5001573;28;104479;-74
2024/01/22 11:09:47;;;;;;;1.23;1.00;;;;;;;11.33;61.45;98618.00;4990015;28;104238;-74
2024/01/22 11:12:19;;;;;;;;;;;;;;;11.40;61.83;98618.13;4998810;28;102732;-74
2024/01/22 11:14:48;;;;;;;1.27;1.00;;;;;;;11.55;61.09;98613.69;4983758;28;103868;-74
2024/01/22 11:17:18;;;;;;;1.70;1.20;;;;;;;11.49;61.82;98600.31;4978981;28;103471;-75
2024/01/22 11:19:46;;;;;;;2.25;1.20;;;;;;;11.51;62.00;98590.38;4986653;28;104396;-74
2024/01/22 11:22:21;;;;;;;1.30;1.20;;;;;;;11.70;61.43;98602.31;5003759;28;102656;-73
2024/01/22 11:25:01;;;;;;;1.40;1.00;;;;;;;11.66;61.50;98590.41;4988485;28;104184;-74
2024/01/22 11:27:38;;;;;;;3.60;1.20;;;;;;;11.62;61.29;98589.97;4999052;28;104183;-75
2024/01/22 11:30:27;;;;;;;4.68;1.20;;;;;;;11.74;61.13;98591.19;4976371;28;103955;-74
2024/01/22 11:32:56;;;;;;;1.17;1.05;;;;;;;11.73;61.10;98594.84;4999726;28;102787;-73
2024/01/22 11:35:34;;;;;;;2.10;1.00;;;;;;;11.66;61.50;98599.22;5002921;28;103015;-74
2024/01/22 11:38:03;;;;;;;1.35;0.88;;;;;;;11.61;61.60;98593.63;4978571;28;104224;-75
2024/01/22 11:40:50;;;;;;;1.55;0.95;;;;;;;11.56;62.05;98601.28;5002031;28;103384;-74